PWTBREMERTON NTL
METARs for airports near PWT, sorted by distance:
N 0 nm 444' KPWT 080656Z 00000KT 10SM CLR 17/10 A2999
SE 15 nm 294' KTIW 080653Z 00000KT 10SM CLR 21/12 A2998
E 18 nm 432' KSEA 080653Z 36006KT 10SM CLR 22/12 A2998
E 18 nm 21' KBFI 080653Z 00000KT 10SM CLR 22/14 A2996
SW 21 nm 272' KSHN 080653Z 00000KT 10SM CLR 16/12 A2996
E 22 nm 32' KRNT 080653Z 00000KT 8SM CLR 23/16 A2996
SE 24 nm 322' KTCM 080658Z 00000KT 10SM CLR 17/14 A2997
S 25 nm 301' KGRF 080658Z 13003KT 10SM CLR 19/11 A2995
SE 30 nm 537' KPLU 080715Z 00000KT 10SM CLR 17/15 A2999
NE 31 nm 606' KPAE 080653Z 36004KT 10SM CLR 21/11 A2999
S 31 nm 207' KOLM 080654Z 00000KT 10SM CLR 18/11 A2997
NW 47 nm 13' KNOW 080715Z 20004KT 10SM CLR 16/13 A2997
NE 47 nm 141' KAWO 080656Z 30003KT 10SM CLR 17/12 A2998
NW 48 nm 291' KCLM 080653Z 23003KT 10SM CLR 17/10 A2998
S 49 nm 177' KCLS 080735Z 00000KT 10SM CLR 17/14 A2997
N 51 nm 47' KNUW 080653Z 00000KT 10SM SKC 16/12 A3000
SW 57 nm 17' KHQM 080653Z 27008KT 10SM CLR 18/14 A2998
N 60 nm 145' KBVS 080715Z 00000KT 10SM CLR 16/15 A2997
N 62 nm 112' KFHR 080653Z 00000KT 10SM CLR 17/12 A2997
N 73 nm 34' KORS 080735Z 00000KT 10SM CLR 17/14 A2995
N 74 nm 64' CYYJ 080700Z 29004KT 240V320 20SM SKC 18/13 A2996
W 77 nm 193' KUIL 080653Z 00000KT 10SM CLR 17/12 A2996
N 78 nm 171' KBLI 080653Z 00000KT 10SM CLR 17/16 A2996
S 82 nm 20' KKLS 080656Z VRB04KT 10SM CLR 21/13 A2998
SW 92 nm 14' KAST 080655Z 21005KT 10SM OVC004 13/12 A3001
E 95 nm 1763' KELN 080653Z 36003KT 10SM CLR 19/06 A2999
TAFs for airports near PWT, sorted by distance:
N 0 nm 444' KPWT TAF KPWT 080526Z 0806/0906 04005KT P6SM SKC
  FM081800 03008KT P6SM SKC
E 18 nm 432' KSEA TAF KSEA 080526Z 0806/0912 01005KT P6SM SKC
  FM081200 32003KT P6SM SKC
  FM081800 31008KT P6SM SKC
E 18 nm 21' KBFI TAF KBFI 080526Z 0806/0906 31003KT P6SM SKC
  FM080700 VRB02KT P6SM SKC
  FM081800 33006KT P6SM SKC
SE 24 nm 322' KTCM TAF KTCM 080500Z 0805/0911 VRB06KT 9999 SKC QNH2995INS
  BECMG 0817/0818 36009KT 9999 SKC QNH2988INS
  BECMG 0909/0910 21006KT 9999 FEW025 SCT050 QNH2996INS TX31/0823Z TN11/0812Z
S 25 nm 301' KGRF TAF KGRF 080500Z 0805/0911 VRB05KT 9999 SKC QNH2994INS
  BECMG 0909/0910 28005KT 9999 BKN130 QNH2990INS TX32/0900Z TN14/0813Z
NE 31 nm 606' KPAE TAF KPAE 080526Z 0806/0906 34003KT P6SM SKC
  FM082000 31006KT P6SM SKC
S 31 nm 207' KOLM TAF KOLM 080526Z 0806/0906 01003KT P6SM SKC
  FM081800 03008KT P6SM SKC
NW 48 nm 291' KCLM TAF KCLM 080526Z 0806/0906 VRB03KT P6SM SKC
  FM081500 05004KT P6SM SKC
  FM082100 33006KT P6SM SKC
N 51 nm 47' KNUW TAF KNUW 0807/0907 VRB06KT 9999 SKC QNH2991INS
  TEMPO 0814/0820 6000 BR SCT010
  FM090300 VRB06KT 8000 BR FEW008 QNH2990INS
  TEMPO 0903/0906 6000 BR SCT008 T11/0812Z T23/0823Z FS30189
SW 57 nm 17' KHQM TAF KHQM 080526Z 0806/0906 22003KT P6SM SKC
  FM080900 22003KT P6SM OVC007
  FM081200 VRB03KT 4SM BR OVC004
  FM082100 23011KT P6SM BKN250
N 78 nm 171' KBLI TAF KBLI 080526Z 0806/0906 VRB01KT P6SM SKC
  FM080700 18003KT P6SM SKC
  FM081800 28005KT P6SM SKC
SW 92 nm 14' KAST TAF
  AMD KAST 080659Z 0807/0906 21006KT P6SM OVC004
  FM080900 24004KT 2SM BR OVC002
  FM081500 19003KT 6SM BR OVC003
  FM081800 24005KT P6SM BKN006
  FM082100 25008KT P6SM FEW010
  FM090400 21003KT 6SM BR OVC007

Shortcut to this page: http://wxbay.com.

Data may contain errors.